Terminal Aerodrome Forecast
Issued by NWS Shreveport, LA

Home | Current Version | Previous Version | Text Only | Print | Product List | Glossary On
Versions: 1 2 3 4 5 6 7 8 9 10 11 12 13
000
FTUS44 KSHV 010500
TAFTXK
TAF
KTXK 010524Z 0106/0206 06005KT 4SM BR OVC004
      TEMPO 0106/0110 2SM -RA BR SCT004 OVC007
     FM011600 05006KT 5SM BR OVC007
     FM011900 04007KT P6SM OVC013
     FM012100 04007KT P6SM OVC020
     FM020100 04003KT P6SM BKN025=

USA.gov is the U.S. government's official web portal to all federal, state and local government web resources and services.